sensor_id;sensor_type;location;lat;lon;timestamp;temperature;humidity
37702;DHT22;23548;51.196;6.838;2023-05-10T00:00:06;13.50;99.90
37702;DHT22;23548;51.196;6.838;2023-05-10T00:02:32;13.50;99.90
37702;DHT22;23548;51.196;6.838;2023-05-10T00:04:58;13.60;99.90
37702;DHT22;23548;51.196;6.838;2023-05-10T00:07:24;13.60;99.90
37702;DHT22;23548;51.196;6.838;2023-05-10T00:09:50;13.60;99.90
37702;DHT22;23548;51.196;6.838;2023-05-10T00:12:17;13.50;99.90
37702;DHT22;23548;51.196;6.838;2023-05-10T00:14:42;13.60;99.90
37702;DHT22;23548;51.196;6.838;2023-05-10T00:17:08;13.50;99.90
37702;DHT22;23548;51.196;6.838;2023-05-10T00:19:34;13.50;99.90
37702;DHT22;23548;51.196;6.838;2023-05-10T00:21:59;13.50;99.90
37702;DHT22;23548;51.196;6.838;2023-05-10T00:24:25;13.50;99.90
37702;DHT22;23548;51.196;6.838;2023-05-10T00:26:51;13.50;99.90
37702;DHT22;23548;51.196;6.838;2023-05-10T00:29:17;13.50;99.90
37702;DHT22;23548;51.196;6.838;2023-05-10T00:31:42;13.50;99.90
37702;DHT22;23548;51.196;6.838;2023-05-10T00:34:08;13.50;99.90
37702;DHT22;23548;51.196;6.838;2023-05-10T00:36:34;13.50;99.90
37702;DHT22;23548;51.196;6.838;2023-05-10T00:39:00;13.50;99.90
37702;DHT22;23548;51.196;6.838;2023-05-10T00:41:26;13.50;99.90
37702;DHT22;23548;51.196;6.838;2023-05-10T00:43:51;13.50;99.90
37702;DHT22;23548;51.196;6.838;2023-05-10T00:46:17;13.50;99.90
37702;DHT22;23548;51.196;6.838;2023-05-10T00:48:43;13.60;99.90
37702;DHT22;23548;51.196;6.838;2023-05-10T00:51:10;13.50;99.90
37702;DHT22;23548;51.196;6.838;2023-05-10T00:53:35;13.60;99.90
37702;DHT22;23548;51.196;6.838;2023-05-10T00:56:01;13.50;99.90
37702;DHT22;23548;51.196;6.838;2023-05-10T00:58:28;13.60;99.90
37702;DHT22;23548;51.196;6.838;2023-05-10T01:00:56;13.60;99.90
37702;DHT22;23548;51.196;6.838;2023-05-10T01:03:23;13.60;99.90
37702;DHT22;23548;51.196;6.838;2023-05-10T01:05:49;13.60;99.90
37702;DHT22;23548;51.196;6.838;2023-05-10T01:08:15;13.50;99.90
37702;DHT22;23548;51.196;6.838;2023-05-10T01:10:41;13.60;99.90
37702;DHT22;23548;51.196;6.838;2023-05-10T01:13:07;13.70;99.90
37702;DHT22;23548;51.196;6.838;2023-05-10T01:18:55;13.70;99.90
37702;DHT22;23548;51.196;6.838;2023-05-10T01:21:37;13.60;99.90
37702;DHT22;23548;51.196;6.838;2023-05-10T01:37:24;13.40;99.90
37702;DHT22;23548;51.196;6.838;2023-05-10T01:39:58;13.40;99.90
37702;DHT22;23548;51.196;6.838;2023-05-10T01:42:28;13.40;99.90
37702;DHT22;23548;51.196;6.838;2023-05-10T01:45:07;13.30;99.90
37702;DHT22;23548;51.196;6.838;2023-05-10T01:47:40;13.30;99.90
37702;DHT22;23548;51.196;6.838;2023-05-10T01:50:15;13.30;99.90
37702;DHT22;23548;51.196;6.838;2023-05-10T01:52:53;13.30;99.90
37702;DHT22;23548;51.196;6.838;2023-05-10T01:55:21;13.30;99.90
37702;DHT22;23548;51.196;6.838;2023-05-10T01:57:52;13.30;99.90
37702;DHT22;23548;51.196;6.838;2023-05-10T02:00:19;13.30;99.90
37702;DHT22;23548;51.196;6.838;2023-05-10T02:02:47;13.20;99.90
37702;DHT22;23548;51.196;6.838;2023-05-10T02:05:14;13.20;99.90
37702;DHT22;23548;51.196;6.838;2023-05-10T02:07:41;13.20;99.90
37702;DHT22;23548;51.196;6.838;2023-05-10T02:10:09;13.20;99.90
37702;DHT22;23548;51.196;6.838;2023-05-10T02:12:43;13.20;99.90
37702;DHT22;23548;51.196;6.838;2023-05-10T02:15:12;13.20;99.90
37702;DHT22;23548;51.196;6.838;2023-05-10T02:17:39;13.10;99.90
37702;DHT22;23548;51.196;6.838;2023-05-10T02:20:06;13.10;99.90
37702;DHT22;23548;51.196;6.838;2023-05-10T02:22:34;13.10;99.90
37702;DHT22;23548;51.196;6.838;2023-05-10T02:25:01;13.20;99.90
37702;DHT22;23548;51.196;6.838;2023-05-10T02:27:28;13.20;99.90
37702;DHT22;23548;51.196;6.838;2023-05-10T02:29:54;13.20;99.90
37702;DHT22;23548;51.196;6.838;2023-05-10T02:32:22;13.20;99.90
37702;DHT22;23548;51.196;6.838;2023-05-10T02:34:50;13.20;99.90
37702;DHT22;23548;51.196;6.838;2023-05-10T02:37:19;13.20;99.90
37702;DHT22;23548;51.196;6.838;2023-05-10T02:39:49;13.20;99.90
37702;DHT22;23548;51.196;6.838;2023-05-10T02:42:21;13.20;99.90
37702;DHT22;23548;51.196;6.838;2023-05-10T02:44:50;13.20;99.90
37702;DHT22;23548;51.196;6.838;2023-05-10T02:47:17;13.20;99.90
37702;DHT22;23548;51.196;6.838;2023-05-10T02:49:43;13.20;99.90
37702;DHT22;23548;51.196;6.838;2023-05-10T02:52:10;13.30;99.90
37702;DHT22;23548;51.196;6.838;2023-05-10T02:54:45;13.30;99.90
37702;DHT22;23548;51.196;6.838;2023-05-10T02:57:16;13.30;99.90
37702;DHT22;23548;51.196;6.838;2023-05-10T02:59:45;13.30;99.90
37702;DHT22;23548;51.196;6.838;2023-05-10T03:02:14;13.30;99.90
37702;DHT22;23548;51.196;6.838;2023-05-10T03:04:40;13.30;99.90
37702;DHT22;23548;51.196;6.838;2023-05-10T03:07:06;13.30;99.90
37702;DHT22;23548;51.196;6.838;2023-05-10T03:09:32;13.30;99.90
37702;DHT22;23548;51.196;6.838;2023-05-10T03:12:11;13.30;99.90
37702;DHT22;23548;51.196;6.838;2023-05-10T03:20:15;13.20;99.90
37702;DHT22;23548;51.196;6.838;2023-05-10T03:22:50;13.20;99.90
37702;DHT22;23548;51.196;6.838;2023-05-10T03:25:16;13.20;99.90
37702;DHT22;23548;51.196;6.838;2023-05-10T03:27:44;13.20;99.90
37702;DHT22;23548;51.196;6.838;2023-05-10T03:30:12;13.20;99.90
37702;DHT22;23548;51.196;6.838;2023-05-10T03:32:38;13.20;99.90
37702;DHT22;23548;51.196;6.838;2023-05-10T03:35:11;13.20;99.90
37702;DHT22;23548;51.196;6.838;2023-05-10T03:37:39;13.20;99.90
37702;DHT22;23548;51.196;6.838;2023-05-10T03:40:05;13.20;99.90
37702;DHT22;23548;51.196;6.838;2023-05-10T03:42:31;13.20;99.90
37702;DHT22;23548;51.196;6.838;2023-05-10T03:44:57;13.20;99.90
37702;DHT22;23548;51.196;6.838;2023-05-10T03:47:22;13.20;99.90
37702;DHT22;23548;51.196;6.838;2023-05-10T03:49:48;13.10;99.90
37702;DHT22;23548;51.196;6.838;2023-05-10T03:52:14;13.10;99.90
37702;DHT22;23548;51.196;6.838;2023-05-10T03:54:39;13.20;99.90
37702;DHT22;23548;51.196;6.838;2023-05-10T03:57:05;13.20;99.90
37702;DHT22;23548;51.196;6.838;2023-05-10T03:59:31;13.20;99.90
37702;DHT22;23548;51.196;6.838;2023-05-10T04:01:57;13.20;99.90
37702;DHT22;23548;51.196;6.838;2023-05-10T04:04:22;13.30;99.90
37702;DHT22;23548;51.196;6.838;2023-05-10T04:06:48;13.30;99.90
37702;DHT22;23548;51.196;6.838;2023-05-10T04:09:15;13.30;99.90
37702;DHT22;23548;51.196;6.838;2023-05-10T04:11:42;13.30;99.90
37702;DHT22;23548;51.196;6.838;2023-05-10T04:14:07;13.30;99.90
37702;DHT22;23548;51.196;6.838;2023-05-10T04:16:33;13.30;99.90
37702;DHT22;23548;51.196;6.838;2023-05-10T04:18:59;13.40;99.90
37702;DHT22;23548;51.196;6.838;2023-05-10T04:21:25;13.40;99.90
37702;DHT22;23548;51.196;6.838;2023-05-10T04:23:51;13.40;99.90
37702;DHT22;23548;51.196;6.838;2023-05-10T04:26:16;13.40;99.90
37702;DHT22;23548;51.196;6.838;2023-05-10T04:28:42;13.40;99.90
37702;DHT22;23548;51.196;6.838;2023-05-10T04:31:09;13.40;99.90
37702;DHT22;23548;51.196;6.838;2023-05-10T04:33:36;13.50;99.90
37702;DHT22;23548;51.196;6.838;2023-05-10T04:36:02;13.50;99.90
37702;DHT22;23548;51.196;6.838;2023-05-10T04:38:28;13.50;99.90
37702;DHT22;23548;51.196;6.838;2023-05-10T04:40:54;13.50;99.90
37702;DHT22;23548;51.196;6.838;2023-05-10T04:43:20;13.50;99.90
37702;DHT22;23548;51.196;6.838;2023-05-10T04:45:45;13.50;99.90
37702;DHT22;23548;51.196;6.838;2023-05-10T04:48:11;13.50;99.90
37702;DHT22;23548;51.196;6.838;2023-05-10T04:50:38;13.60;99.90
37702;DHT22;23548;51.196;6.838;2023-05-10T04:53:04;13.70;99.90
37702;DHT22;23548;51.196;6.838;2023-05-10T04:55:30;13.70;99.90
37702;DHT22;23548;51.196;6.838;2023-05-10T04:57:56;13.70;99.90
37702;DHT22;23548;51.196;6.838;2023-05-10T05:00:23;13.80;99.90
37702;DHT22;23548;51.196;6.838;2023-05-10T05:02:49;13.80;99.90
37702;DHT22;23548;51.196;6.838;2023-05-10T05:05:15;13.80;99.90
37702;DHT22;23548;51.196;6.838;2023-05-10T05:07:40;13.90;99.90
37702;DHT22;23548;51.196;6.838;2023-05-10T05:10:07;13.90;99.90
37702;DHT22;23548;51.196;6.838;2023-05-10T05:12:34;13.90;99.90
37702;DHT22;23548;51.196;6.838;2023-05-10T05:15:00;13.90;99.90
37702;DHT22;23548;51.196;6.838;2023-05-10T05:17:25;14.00;99.90
37702;DHT22;23548;51.196;6.838;2023-05-10T05:19:51;14.10;99.90
37702;DHT22;23548;51.196;6.838;2023-05-10T05:22:17;14.00;99.90
37702;DHT22;23548;51.196;6.838;2023-05-10T05:24:44;14.10;99.90
37702;DHT22;23548;51.196;6.838;2023-05-10T05:27:11;14.10;99.90
37702;DHT22;23548;51.196;6.838;2023-05-10T05:29:37;14.10;99.90
37702;DHT22;23548;51.196;6.838;2023-05-10T05:32:02;14.10;99.90
37702;DHT22;23548;51.196;6.838;2023-05-10T05:34:28;14.20;99.90
37702;DHT22;23548;51.196;6.838;2023-05-10T05:36:54;14.20;99.90
37702;DHT22;23548;51.196;6.838;2023-05-10T05:39:20;14.10;99.90
37702;DHT22;23548;51.196;6.838;2023-05-10T05:41:46;14.10;99.90
37702;DHT22;23548;51.196;6.838;2023-05-10T05:44:12;14.00;99.90
37702;DHT22;23548;51.196;6.838;2023-05-10T05:46:38;14.00;99.90
37702;DHT22;23548;51.196;6.838;2023-05-10T05:49:03;14.00;99.90
37702;DHT22;23548;51.196;6.838;2023-05-10T05:51:29;14.00;99.90
37702;DHT22;23548;51.196;6.838;2023-05-10T05:53:55;14.00;99.90
37702;DHT22;23548;51.196;6.838;2023-05-10T05:56:21;14.10;99.90
37702;DHT22;23548;51.196;6.838;2023-05-10T05:58:50;14.10;99.90
37702;DHT22;23548;51.196;6.838;2023-05-10T06:01:16;14.20;99.90
37702;DHT22;23548;51.196;6.838;2023-05-10T06:03:42;14.20;99.90
37702;DHT22;23548;51.196;6.838;2023-05-10T06:06:08;14.20;99.90
37702;DHT22;23548;51.196;6.838;2023-05-10T06:08:34;14.10;99.90
37702;DHT22;23548;51.196;6.838;2023-05-10T06:11:00;14.10;99.90
37702;DHT22;23548;51.196;6.838;2023-05-10T06:13:26;14.10;99.90
37702;DHT22;23548;51.196;6.838;2023-05-10T06:15:58;14.10;99.90
37702;DHT22;23548;51.196;6.838;2023-05-10T06:18:24;14.20;99.90
37702;DHT22;23548;51.196;6.838;2023-05-10T06:20:49;14.10;99.90
37702;DHT22;23548;51.196;6.838;2023-05-10T06:23:15;14.10;99.90
37702;DHT22;23548;51.196;6.838;2023-05-10T06:25:41;14.10;99.90
37702;DHT22;23548;51.196;6.838;2023-05-10T06:28:07;14.20;99.90
37702;DHT22;23548;51.196;6.838;2023-05-10T06:30:33;14.20;99.90
37702;DHT22;23548;51.196;6.838;2023-05-10T06:32:58;14.20;99.90
37702;DHT22;23548;51.196;6.838;2023-05-10T06:35:24;14.30;99.90
37702;DHT22;23548;51.196;6.838;2023-05-10T06:37:50;14.40;99.90
37702;DHT22;23548;51.196;6.838;2023-05-10T06:40:17;14.30;99.90
37702;DHT22;23548;51.196;6.838;2023-05-10T06:42:42;14.20;99.90
37702;DHT22;23548;51.196;6.838;2023-05-10T06:45:10;14.10;99.90
37702;DHT22;23548;51.196;6.838;2023-05-10T06:47:36;14.10;99.90
37702;DHT22;23548;51.196;6.838;2023-05-10T06:50:02;13.90;99.90
37702;DHT22;23548;51.196;6.838;2023-05-10T06:52:28;13.90;99.90
37702;DHT22;23548;51.196;6.838;2023-05-10T06:54:54;13.90;99.90
37702;DHT22;23548;51.196;6.838;2023-05-10T06:57:20;14.00;99.90
37702;DHT22;23548;51.196;6.838;2023-05-10T06:59:46;14.10;99.90
37702;DHT22;23548;51.196;6.838;2023-05-10T07:02:12;14.20;99.90
37702;DHT22;23548;51.196;6.838;2023-05-10T07:04:40;14.30;99.90
37702;DHT22;23548;51.196;6.838;2023-05-10T07:07:05;14.40;99.90
37702;DHT22;23548;51.196;6.838;2023-05-10T07:09:31;14.50;99.90
37702;DHT22;23548;51.196;6.838;2023-05-10T07:11:57;14.70;99.90
37702;DHT22;23548;51.196;6.838;2023-05-10T07:14:23;14.90;99.90
37702;DHT22;23548;51.196;6.838;2023-05-10T07:16:49;14.90;99.90
37702;DHT22;23548;51.196;6.838;2023-05-10T07:19:14;15.00;99.90
37702;DHT22;23548;51.196;6.838;2023-05-10T07:21:40;15.20;99.90
37702;DHT22;23548;51.196;6.838;2023-05-10T07:24:08;15.10;99.90
37702;DHT22;23548;51.196;6.838;2023-05-10T07:26:34;15.10;99.90
37702;DHT22;23548;51.196;6.838;2023-05-10T07:29:00;15.00;99.90
37702;DHT22;23548;51.196;6.838;2023-05-10T07:31:26;15.00;99.90
37702;DHT22;23548;51.196;6.838;2023-05-10T07:33:52;14.90;99.90
37702;DHT22;23548;51.196;6.838;2023-05-10T07:36:17;15.00;99.90
37702;DHT22;23548;51.196;6.838;2023-05-10T07:38:43;15.20;99.90
37702;DHT22;23548;51.196;6.838;2023-05-10T07:41:09;15.40;99.90
37702;DHT22;23548;51.196;6.838;2023-05-10T07:43:35;15.50;99.90
37702;DHT22;23548;51.196;6.838;2023-05-10T07:46:00;15.80;99.90
37702;DHT22;23548;51.196;6.838;2023-05-10T07:48:26;15.90;99.90
37702;DHT22;23548;51.196;6.838;2023-05-10T07:50:52;15.70;99.90
37702;DHT22;23548;51.196;6.838;2023-05-10T07:53:18;15.40;99.90
37702;DHT22;23548;51.196;6.838;2023-05-10T07:55:44;15.40;99.90
37702;DHT22;23548;51.196;6.838;2023-05-10T07:58:15;15.40;99.90
37702;DHT22;23548;51.196;6.838;2023-05-10T08:00:40;15.40;99.90
37702;DHT22;23548;51.196;6.838;2023-05-10T08:03:06;15.20;99.90
37702;DHT22;23548;51.196;6.838;2023-05-10T08:05:32;15.10;99.90
37702;DHT22;23548;51.196;6.838;2023-05-10T08:07:57;15.10;99.90
37702;DHT22;23548;51.196;6.838;2023-05-10T08:10:24;15.20;99.90
37702;DHT22;23548;51.196;6.838;2023-05-10T08:12:51;15.70;99.90
37702;DHT22;23548;51.196;6.838;2023-05-10T08:15:16;16.10;99.90
37702;DHT22;23548;51.196;6.838;2023-05-10T08:17:43;16.50;99.90
37702;DHT22;23548;51.196;6.838;2023-05-10T08:20:09;16.60;99.90
37702;DHT22;23548;51.196;6.838;2023-05-10T08:22:35;16.70;99.90
37702;DHT22;23548;51.196;6.838;2023-05-10T08:25:01;17.20;99.90
37702;DHT22;23548;51.196;6.838;2023-05-10T08:27:26;17.00;99.90
37702;DHT22;23548;51.196;6.838;2023-05-10T08:29:52;16.70;99.90
37702;DHT22;23548;51.196;6.838;2023-05-10T08:32:18;16.70;99.90
37702;DHT22;23548;51.196;6.838;2023-05-10T08:34:44;17.00;99.90
37702;DHT22;23548;51.196;6.838;2023-05-10T08:37:10;17.00;99.90
37702;DHT22;23548;51.196;6.838;2023-05-10T08:39:38;17.10;99.90
37702;DHT22;23548;51.196;6.838;2023-05-10T08:42:04;17.40;99.90
37702;DHT22;23548;51.196;6.838;2023-05-10T08:44:35;17.20;99.90
37702;DHT22;23548;51.196;6.838;2023-05-10T08:47:07;17.40;99.90
37702;DHT22;23548;51.196;6.838;2023-05-10T08:49:35;17.40;99.90
37702;DHT22;23548;51.196;6.838;2023-05-10T08:52:03;17.80;99.90
37702;DHT22;23548;51.196;6.838;2023-05-10T08:54:34;18.10;99.90
37702;DHT22;23548;51.196;6.838;2023-05-10T08:57:00;17.90;99.90
37702;DHT22;23548;51.196;6.838;2023-05-10T08:59:26;17.40;99.90
37702;DHT22;23548;51.196;6.838;2023-05-10T09:01:52;16.80;99.90
37702;DHT22;23548;51.196;6.838;2023-05-10T09:04:20;16.60;99.90
37702;DHT22;23548;51.196;6.838;2023-05-10T09:06:46;16.40;99.90
37702;DHT22;23548;51.196;6.838;2023-05-10T09:09:12;16.30;99.90
37702;DHT22;23548;51.196;6.838;2023-05-10T09:11:38;16.20;99.90
37702;DHT22;23548;51.196;6.838;2023-05-10T09:14:04;16.20;99.90
37702;DHT22;23548;51.196;6.838;2023-05-10T09:16:30;16.30;99.90
37702;DHT22;23548;51.196;6.838;2023-05-10T09:18:56;16.70;99.90
37702;DHT22;23548;51.196;6.838;2023-05-10T09:21:22;16.90;99.90
37702;DHT22;23548;51.196;6.838;2023-05-10T09:23:48;16.90;99.90
37702;DHT22;23548;51.196;6.838;2023-05-10T09:26:15;16.80;99.90
37702;DHT22;23548;51.196;6.838;2023-05-10T09:28:52;17.00;99.90
37702;DHT22;23548;51.196;6.838;2023-05-10T09:31:19;17.40;99.90
37702;DHT22;23548;51.196;6.838;2023-05-10T09:33:46;17.90;99.90
37702;DHT22;23548;51.196;6.838;2023-05-10T09:36:13;17.40;99.90
37702;DHT22;23548;51.196;6.838;2023-05-10T09:38:46;17.60;99.90
37702;DHT22;23548;51.196;6.838;2023-05-10T09:41:21;17.40;99.90
37702;DHT22;23548;51.196;6.838;2023-05-10T09:43:49;17.40;99.90
37702;DHT22;23548;51.196;6.838;2023-05-10T09:46:15;17.40;99.90
37702;DHT22;23548;51.196;6.838;2023-05-10T09:48:46;17.40;99.90
37702;DHT22;23548;51.196;6.838;2023-05-10T09:51:24;17.10;99.90
37702;DHT22;23548;51.196;6.838;2023-05-10T09:54:09;17.20;99.90
37702;DHT22;23548;51.196;6.838;2023-05-10T09:56:38;17.10;99.90
37702;DHT22;23548;51.196;6.838;2023-05-10T09:59:09;17.20;99.90
37702;DHT22;23548;51.196;6.838;2023-05-10T10:01:35;17.20;99.90
37702;DHT22;23548;51.196;6.838;2023-05-10T10:04:08;17.30;99.90
37702;DHT22;23548;51.196;6.838;2023-05-10T10:06:40;17.20;99.90
37702;DHT22;23548;51.196;6.838;2023-05-10T10:09:07;17.40;99.90
37702;DHT22;23548;51.196;6.838;2023-05-10T10:11:35;17.20;99.90
37702;DHT22;23548;51.196;6.838;2023-05-10T10:14:01;16.90;99.90
37702;DHT22;23548;51.196;6.838;2023-05-10T10:16:29;16.90;99.90
37702;DHT22;23548;51.196;6.838;2023-05-10T10:18:55;16.70;99.90
37702;DHT22;23548;51.196;6.838;2023-05-10T10:21:22;16.70;99.90
37702;DHT22;23548;51.196;6.838;2023-05-10T10:23:48;16.70;99.90
37702;DHT22;23548;51.196;6.838;2023-05-10T10:26:15;17.10;99.90
37702;DHT22;23548;51.196;6.838;2023-05-10T10:31:55;17.40;99.90
37702;DHT22;23548;51.196;6.838;2023-05-10T10:34:28;17.90;99.90
37702;DHT22;23548;51.196;6.838;2023-05-10T10:36:55;18.30;99.90
37702;DHT22;23548;51.196;6.838;2023-05-10T10:39:23;18.20;99.90
37702;DHT22;23548;51.196;6.838;2023-05-10T10:41:57;18.60;99.90
37702;DHT22;23548;51.196;6.838;2023-05-10T10:57:50;18.60;99.90
37702;DHT22;23548;51.196;6.838;2023-05-10T11:00:38;18.50;99.90
37702;DHT22;23548;51.196;6.838;2023-05-10T11:03:11;18.50;99.90
37702;DHT22;23548;51.196;6.838;2023-05-10T11:05:50;17.80;99.90
37702;DHT22;23548;51.196;6.838;2023-05-10T11:08:28;17.60;99.90
37702;DHT22;23548;51.196;6.838;2023-05-10T11:13:42;18.30;99.90
37702;DHT22;23548;51.196;6.838;2023-05-10T11:16:23;18.40;99.90
37702;DHT22;23548;51.196;6.838;2023-05-10T11:19:08;18.30;99.90
37702;DHT22;23548;51.196;6.838;2023-05-10T11:21:45;18.10;99.90
37702;DHT22;23548;51.196;6.838;2023-05-10T11:24:16;17.80;99.90
37702;DHT22;23548;51.196;6.838;2023-05-10T11:26:42;18.00;99.90
37702;DHT22;23548;51.196;6.838;2023-05-10T11:29:08;18.10;99.90
37702;DHT22;23548;51.196;6.838;2023-05-10T11:31:34;18.20;99.90
37702;DHT22;23548;51.196;6.838;2023-05-10T11:34:00;17.70;99.90
37702;DHT22;23548;51.196;6.838;2023-05-10T11:36:33;17.70;99.90
37702;DHT22;23548;51.196;6.838;2023-05-10T11:38:59;18.00;99.90
37702;DHT22;23548;51.196;6.838;2023-05-10T11:41:27;18.40;99.90
37702;DHT22;23548;51.196;6.838;2023-05-10T11:43:54;18.70;99.90
37702;DHT22;23548;51.196;6.838;2023-05-10T11:46:23;19.00;99.90
37702;DHT22;23548;51.196;6.838;2023-05-10T11:48:53;19.10;99.90
37702;DHT22;23548;51.196;6.838;2023-05-10T11:51:21;19.00;99.90
37702;DHT22;23548;51.196;6.838;2023-05-10T11:53:48;18.80;99.90
37702;DHT22;23548;51.196;6.838;2023-05-10T11:56:14;18.60;99.90
37702;DHT22;23548;51.196;6.838;2023-05-10T11:58:40;18.50;99.90
37702;DHT22;23548;51.196;6.838;2023-05-10T12:01:07;18.20;99.90
37702;DHT22;23548;51.196;6.838;2023-05-10T12:03:34;18.50;99.90
37702;DHT22;23548;51.196;6.838;2023-05-10T12:06:02;18.60;99.90
37702;DHT22;23548;51.196;6.838;2023-05-10T12:08:29;19.00;99.90
37702;DHT22;23548;51.196;6.838;2023-05-10T12:11:09;19.30;99.90
37702;DHT22;23548;51.196;6.838;2023-05-10T12:13:40;19.70;99.90
37702;DHT22;23548;51.196;6.838;2023-05-10T12:16:17;19.40;99.90
37702;DHT22;23548;51.196;6.838;2023-05-10T12:18:44;19.00;99.90
37702;DHT22;23548;51.196;6.838;2023-05-10T12:21:11;18.50;99.90
37702;DHT22;23548;51.196;6.838;2023-05-10T12:23:38;18.00;99.90
37702;DHT22;23548;51.196;6.838;2023-05-10T12:26:05;17.90;99.90
37702;DHT22;23548;51.196;6.838;2023-05-10T12:28:32;18.00;99.90
37702;DHT22;23548;51.196;6.838;2023-05-10T12:30:59;18.00;99.90
37702;DHT22;23548;51.196;6.838;2023-05-10T12:33:25;17.90;99.90
37702;DHT22;23548;51.196;6.838;2023-05-10T12:35:54;18.10;99.90
37702;DHT22;23548;51.196;6.838;2023-05-10T12:40:50;18.00;99.90
37702;DHT22;23548;51.196;6.838;2023-05-10T12:43:16;17.90;99.90
37702;DHT22;23548;51.196;6.838;2023-05-10T12:45:42;17.60;99.90
37702;DHT22;23548;51.196;6.838;2023-05-10T12:48:07;17.10;99.90
37702;DHT22;23548;51.196;6.838;2023-05-10T12:50:33;17.00;99.90
37702;DHT22;23548;51.196;6.838;2023-05-10T12:52:59;16.80;99.90
37702;DHT22;23548;51.196;6.838;2023-05-10T12:55:25;16.60;99.90
37702;DHT22;23548;51.196;6.838;2023-05-10T12:57:51;16.70;99.90
37702;DHT22;23548;51.196;6.838;2023-05-10T13:00:17;16.80;99.90
37702;DHT22;23548;51.196;6.838;2023-05-10T13:02:43;17.40;99.90
37702;DHT22;23548;51.196;6.838;2023-05-10T13:05:09;17.60;99.90
37702;DHT22;23548;51.196;6.838;2023-05-10T13:07:35;18.30;99.90
37702;DHT22;23548;51.196;6.838;2023-05-10T13:10:01;19.10;99.90
37702;DHT22;23548;51.196;6.838;2023-05-10T13:12:26;18.80;99.90
37702;DHT22;23548;51.196;6.838;2023-05-10T13:14:52;18.70;99.90
37702;DHT22;23548;51.196;6.838;2023-05-10T13:17:18;18.70;99.90
37702;DHT22;23548;51.196;6.838;2023-05-10T13:20:09;18.30;99.90
37702;DHT22;23548;51.196;6.838;2023-05-10T13:22:35;17.90;99.90
37702;DHT22;23548;51.196;6.838;2023-05-10T13:25:01;17.40;99.90
37702;DHT22;23548;51.196;6.838;2023-05-10T13:27:27;17.20;99.90
37702;DHT22;23548;51.196;6.838;2023-05-10T13:29:54;17.00;99.90
37702;DHT22;23548;51.196;6.838;2023-05-10T13:32:20;16.90;99.90
37702;DHT22;23548;51.196;6.838;2023-05-10T13:34:46;17.00;99.90
37702;DHT22;23548;51.196;6.838;2023-05-10T13:37:12;17.00;99.90
37702;DHT22;23548;51.196;6.838;2023-05-10T13:39:38;17.00;99.90
37702;DHT22;23548;51.196;6.838;2023-05-10T13:42:04;17.70;99.90
37702;DHT22;23548;51.196;6.838;2023-05-10T13:44:30;17.60;99.90
37702;DHT22;23548;51.196;6.838;2023-05-10T13:46:59;17.60;99.90
37702;DHT22;23548;51.196;6.838;2023-05-10T13:52:40;18.30;99.90
37702;DHT22;23548;51.196;6.838;2023-05-10T13:55:06;18.10;99.90
37702;DHT22;23548;51.196;6.838;2023-05-10T14:04:16;18.10;99.90
37702;DHT22;23548;51.196;6.838;2023-05-10T14:06:42;17.80;99.90
37702;DHT22;23548;51.196;6.838;2023-05-10T14:09:07;17.90;99.90
37702;DHT22;23548;51.196;6.838;2023-05-10T14:11:33;17.80;99.90
37702;DHT22;23548;51.196;6.838;2023-05-10T14:17:23;17.80;99.90
37702;DHT22;23548;51.196;6.838;2023-05-10T14:19:49;17.90;99.90
37702;DHT22;23548;51.196;6.838;2023-05-10T14:22:15;17.90;99.90
37702;DHT22;23548;51.196;6.838;2023-05-10T14:24:40;17.80;99.90
37702;DHT22;23548;51.196;6.838;2023-05-10T14:27:06;17.90;99.90
37702;DHT22;23548;51.196;6.838;2023-05-10T14:29:32;17.80;99.90
37702;DHT22;23548;51.196;6.838;2023-05-10T14:31:58;18.00;99.90
37702;DHT22;23548;51.196;6.838;2023-05-10T14:34:24;17.90;99.90
37702;DHT22;23548;51.196;6.838;2023-05-10T14:40:12;17.90;99.90
37702;DHT22;23548;51.196;6.838;2023-05-10T14:42:38;18.40;99.90
37702;DHT22;23548;51.196;6.838;2023-05-10T14:48:10;18.50;99.90
37702;DHT22;23548;51.196;6.838;2023-05-10T14:50:40;18.00;99.90
37702;DHT22;23548;51.196;6.838;2023-05-10T14:56:28;18.50;99.90
37702;DHT22;23548;51.196;6.838;2023-05-10T14:58:54;18.70;99.90
37702;DHT22;23548;51.196;6.838;2023-05-10T15:01:20;18.50;99.90
37702;DHT22;23548;51.196;6.838;2023-05-10T15:06:57;19.00;99.90
37702;DHT22;23548;51.196;6.838;2023-05-10T15:09:25;19.50;99.90
37702;DHT22;23548;51.196;6.838;2023-05-10T15:11:51;19.60;99.90
37702;DHT22;23548;51.196;6.838;2023-05-10T15:14:17;19.60;99.90
37702;DHT22;23548;51.196;6.838;2023-05-10T15:23:57;19.10;99.90
37702;DHT22;23548;51.196;6.838;2023-05-10T15:26:43;18.90;99.90
37702;DHT22;23548;51.196;6.838;2023-05-10T15:32:31;18.90;99.90
37702;DHT22;23548;51.196;6.838;2023-05-10T15:34:57;18.90;99.90
37702;DHT22;23548;51.196;6.838;2023-05-10T15:37:23;18.60;99.90
37702;DHT22;23548;51.196;6.838;2023-05-10T15:46:14;18.50;99.90
37702;DHT22;23548;51.196;6.838;2023-05-10T15:48:40;18.30;99.90
37702;DHT22;23548;51.196;6.838;2023-05-10T15:51:07;18.00;99.90
37702;DHT22;23548;51.196;6.838;2023-05-10T15:53:32;17.90;99.90
37702;DHT22;23548;51.196;6.838;2023-05-10T15:59:20;17.80;99.90
37702;DHT22;23548;51.196;6.838;2023-05-10T16:05:08;17.60;99.90
37702;DHT22;23548;51.196;6.838;2023-05-10T16:07:34;17.70;99.90
37702;DHT22;23548;51.196;6.838;2023-05-10T16:10:00;17.80;99.90
37702;DHT22;23548;51.196;6.838;2023-05-10T16:13:01;18.00;99.90
37702;DHT22;23548;51.196;6.838;2023-05-10T16:15:28;18.20;99.90
37702;DHT22;23548;51.196;6.838;2023-05-10T16:17:54;18.20;99.90
37702;DHT22;23548;51.196;6.838;2023-05-10T16:20:20;18.50;99.90
37702;DHT22;23548;51.196;6.838;2023-05-10T16:22:45;18.50;99.90
37702;DHT22;23548;51.196;6.838;2023-05-10T16:25:11;18.10;99.90
37702;DHT22;23548;51.196;6.838;2023-05-10T16:27:37;18.40;99.90
37702;DHT22;23548;51.196;6.838;2023-05-10T16:30:03;18.40;99.90
37702;DHT22;23548;51.196;6.838;2023-05-10T16:35:51;18.40;99.90
37702;DHT22;23548;51.196;6.838;2023-05-10T16:41:39;18.50;99.90
37702;DHT22;23548;51.196;6.838;2023-05-10T16:44:04;18.10;99.90
37702;DHT22;23548;51.196;6.838;2023-05-10T16:46:30;17.70;99.90
37702;DHT22;23548;51.196;6.838;2023-05-10T16:48:57;17.60;99.90
37702;DHT22;23548;51.196;6.838;2023-05-10T16:51:25;17.40;99.90
37702;DHT22;23548;51.196;6.838;2023-05-10T16:53:52;17.10;99.90
37702;DHT22;23548;51.196;6.838;2023-05-10T16:56:18;16.90;99.90
37702;DHT22;23548;51.196;6.838;2023-05-10T16:58:46;16.80;99.90
37702;DHT22;23548;51.196;6.838;2023-05-10T17:01:15;16.70;99.90
37702;DHT22;23548;51.196;6.838;2023-05-10T17:03:41;16.60;99.90
37702;DHT22;23548;51.196;6.838;2023-05-10T17:06:07;16.50;99.90
37702;DHT22;23548;51.196;6.838;2023-05-10T17:08:33;16.40;99.90
37702;DHT22;23548;51.196;6.838;2023-05-10T17:11:02;16.40;99.90